Time;durP1;ratioP1;P1;durP2;ratioP2;P2;SDS_P1;SDS_P2;PMS_P1;PMS_P2;Temp;Humidity;BMP_temperature;BMP_pressure;BME280_temperature;BME280_humidity;BME280_pressure;Samples;Min_cycle;Max_cycle;Signal;HPM_P1;HPM_P2
2023/07/30 00:02:03;;;;;;;1999.90;999.90;;;;;;;;;;6626911;88;20250;-77
2023/07/30 00:12:06;;;;;;;1999.90;999.90;;;;;;;;;;6643693;88;20742;-77
2023/07/30 00:22:07;;;;;;;1999.90;999.90;;;;;;;;;;6626810;88;20206;-77
2023/07/30 00:32:09;;;;;;;1999.90;999.90;;;;;;;;;;6641516;88;20617;-76
2023/07/30 00:42:10;;;;;;;1999.90;999.90;;;;;;;;;;6628690;88;20189;-76
2023/07/30 00:52:11;;;;;;;1999.90;999.90;;;;;;;;;;6634158;88;20221;-76
2023/07/30 01:02:12;;;;;;;1999.90;999.90;;;;;;;;;;6624649;89;20278;-76
2023/07/30 01:12:13;;;;;;;1999.90;999.90;;;;;;;;;;6641158;88;20199;-75
2023/07/30 01:22:14;;;;;;;1999.90;999.90;;;;;;;;;;6644498;88;20213;-76
2023/07/30 01:32:36;;;;;;;1999.90;999.90;;;;;;;;;;6693934;77;20337;-80
2023/07/30 01:42:37;;;;;;;1999.90;999.90;;;;;;;;;;6659178;89;20229;-80
2023/07/30 01:52:38;;;;;;;1999.90;999.90;;;;;;;;;;6657933;88;20195;-81
2023/07/30 02:02:39;;;;;;;1999.90;999.90;;;;;;;;;;6665022;88;20201;-84
2023/07/30 02:12:40;;;;;;;1999.90;999.90;;;;;;;;;;6669042;89;20250;-79
2023/07/30 02:22:41;;;;;;;1999.90;999.90;;;;;;;;;;6658989;88;20185;-79
2023/07/30 02:32:42;;;;;;;1999.90;999.90;;;;;;;;;;6671918;88;20224;-78
2023/07/30 02:42:43;;;;;;;1999.90;999.90;;;;;;;;;;6667861;88;20193;-79
2023/07/30 02:52:44;;;;;;;1999.90;999.90;;;;;;;;;;6655976;89;20211;-78
2023/07/30 03:02:46;;;;;;;1999.90;999.90;;;;;;;;;;6660003;88;20195;-78
2023/07/30 03:12:47;;;;;;;1999.90;999.90;;;;;;;;;;6664786;88;20226;-78
2023/07/30 03:22:48;;;;;;;1999.90;999.90;;;;;;;;;;6668440;88;20202;-77
2023/07/30 03:32:49;;;;;;;1999.90;999.90;;;;;;;;;;6657856;88;21266;-78
2023/07/30 03:42:50;;;;;;;1999.90;999.90;;;;;;;;;;6662403;89;20347;-79
2023/07/30 03:52:51;;;;;;;1999.90;999.90;;;;;;;;;;6664991;88;20238;-78
2023/07/30 04:02:52;;;;;;;1999.90;999.90;;;;;;;;;;6679416;88;20188;-79
2023/07/30 04:12:53;;;;;;;1999.90;999.90;;;;;;;;;;6664238;88;20970;-79
2023/07/30 04:22:54;;;;;;;1999.90;999.90;;;;;;;;;;6667869;88;20289;-79
2023/07/30 04:32:55;;;;;;;1999.90;999.90;;;;;;;;;;6657699;88;20259;-79
2023/07/30 04:42:56;;;;;;;1999.90;999.90;;;;;;;;;;6663986;89;20357;-78
2023/07/30 04:52:57;;;;;;;1999.90;999.90;;;;;;;;;;6663345;88;20218;-78
2023/07/30 05:02:58;;;;;;;1999.90;999.90;;;;;;;;;;6645210;88;20216;-79
2023/07/30 05:12:59;;;;;;;1999.90;999.90;;;;;;;;;;6646423;88;20207;-78
2023/07/30 05:23:02;;;;;;;1999.90;999.90;;;;;;;;;;6668861;89;20231;-81
2023/07/30 05:33:03;;;;;;;1999.90;999.90;;;;;;;;;;6654798;88;20232;-79
2023/07/30 05:43:04;;;;;;;1999.90;999.90;;;;;;;;;;6651857;89;20244;-79
2023/07/30 05:53:05;;;;;;;1999.90;999.90;;;;;;;;;;6653510;89;20615;-80
2023/07/30 06:03:08;;;;;;;1999.90;999.90;;;;;;;;;;6658890;88;20185;-79
2023/07/30 06:13:09;;;;;;;1999.90;999.90;;;;;;;;;;6649922;88;20192;-79
2023/07/30 06:23:10;;;;;;;1999.90;999.90;;;;;;;;;;6654889;88;20706;-79
2023/07/30 06:33:11;;;;;;;1999.90;999.90;;;;;;;;;;6656527;88;20196;-79
2023/07/30 06:43:12;;;;;;;1999.90;999.90;;;;;;;;;;6651717;89;20200;-80
2023/07/30 06:53:13;;;;;;;1999.90;999.90;;;;;;;;;;6699372;88;20233;-80
2023/07/30 07:03:14;;;;;;;1999.90;999.90;;;;;;;;;;6655470;89;20200;-79
2023/07/30 07:13:15;;;;;;;1999.90;999.90;;;;;;;;;;6654953;88;20243;-79
2023/07/30 07:23:16;;;;;;;1999.90;999.90;;;;;;;;;;6654055;88;20204;-79
2023/07/30 07:53:46;;;;;;;1999.90;999.90;;;;;;;;;;6735740;88;20342;-81
2023/07/30 08:14:12;;;;;;;1999.90;999.90;;;;;;;;;;6700107;89;20731;-81
2023/07/30 08:24:34;;;;;;;1999.90;999.90;;;;;;;;;;6752627;88;20607;-81
2023/07/30 08:34:55;;;;;;;1999.90;999.90;;;;;;;;;;6752723;88;20768;-81
2023/07/30 09:57:01;;;;;;;1999.90;999.90;;;;;;;;;;6767041;88;20144;-83
2023/07/30 10:07:07;;;;;;;1999.90;999.90;;;;;;;;;;6767792;88;20579;-83
2023/07/30 10:17:10;;;;;;;1999.90;999.90;;;;;;;;;;6732209;88;20253;-83
2023/07/30 10:27:11;;;;;;;1999.90;999.90;;;;;;;;;;6732829;88;20222;-84
2023/07/30 10:37:17;;;;;;;1999.90;999.90;;;;;;;;;;6732902;88;20154;-84
2023/07/30 10:47:18;;;;;;;1999.90;999.90;;;;;;;;;;6748500;88;20168;-82
2023/07/30 10:57:20;;;;;;;1999.90;999.90;;;;;;;;;;6752229;88;20929;-84
2023/07/30 11:07:21;;;;;;;1999.90;999.90;;;;;;;;;;6751683;88;20354;-84
2023/07/30 11:17:24;;;;;;;1999.90;999.90;;;;;;;;;;6751518;88;20221;-84
2023/07/30 11:38:28;;;;;;;1999.90;999.90;;;;;;;;;;6752055;88;20159;-83
2023/07/30 11:48:29;;;;;;;1999.90;999.90;;;;;;;;;;6769437;88;20886;-84
2023/07/30 11:58:30;;;;;;;1999.90;999.90;;;;;;;;;;6768058;88;20181;-84
2023/07/30 12:08:31;;;;;;;1999.90;999.90;;;;;;;;;;6768611;88;20174;-85
2023/07/30 12:18:32;;;;;;;1999.90;999.90;;;;;;;;;;6768230;88;20156;-84
2023/07/30 12:28:34;;;;;;;1999.90;999.90;;;;;;;;;;6768016;88;20169;-82
2023/07/30 12:38:35;;;;;;;1999.90;999.90;;;;;;;;;;6767778;87;20188;-83
2023/07/30 12:48:36;;;;;;;1999.90;999.90;;;;;;;;;;6767586;88;20188;-83
2023/07/30 12:58:38;;;;;;;1999.90;999.90;;;;;;;;;;6767608;88;20228;-85
2023/07/30 13:08:42;;;;;;;1999.90;999.90;;;;;;;;;;6767558;88;20867;-83
2023/07/30 13:18:43;;;;;;;1999.90;999.90;;;;;;;;;;6767933;88;20190;-83
2023/07/30 13:39:26;;;;;;;1999.90;999.90;;;;;;;;;;6729584;88;20206;-79
2023/07/30 13:49:27;;;;;;;1999.90;999.90;;;;;;;;;;6744250;88;20188;-78
2023/07/30 13:59:28;;;;;;;1999.90;999.90;;;;;;;;;;6730516;88;20204;-79
2023/07/30 14:09:33;;;;;;;1999.90;999.90;;;;;;;;;;6738036;88;20254;-78
2023/07/30 14:19:34;;;;;;;1999.90;999.90;;;;;;;;;;6730736;88;20248;-78
2023/07/30 14:29:35;;;;;;;1999.90;999.90;;;;;;;;;;6735521;88;20663;-79
2023/07/30 14:39:36;;;;;;;1999.90;999.90;;;;;;;;;;6724533;88;20210;-78
2023/07/30 14:49:38;;;;;;;1999.90;999.90;;;;;;;;;;6724888;88;20217;-78
2023/07/30 14:59:39;;;;;;;1999.90;999.90;;;;;;;;;;6737122;88;20200;-78
2023/07/30 15:09:40;;;;;;;1999.90;999.90;;;;;;;;;;6740064;88;20232;-79
2023/07/30 15:19:41;;;;;;;1999.90;999.90;;;;;;;;;;6730632;88;20197;-79
2023/07/30 15:29:44;;;;;;;1999.90;999.90;;;;;;;;;;6737254;88;20226;-78
2023/07/30 15:39:45;;;;;;;1999.90;999.90;;;;;;;;;;6730465;88;20262;-79
2023/07/30 15:49:46;;;;;;;1999.90;999.90;;;;;;;;;;6740010;88;20260;-79
2023/07/30 15:59:48;;;;;;;1999.90;999.90;;;;;;;;;;6740484;88;20233;-79
2023/07/30 16:09:49;;;;;;;1999.90;999.90;;;;;;;;;;6735195;88;20289;-79
2023/07/30 16:20:06;;;;;;;1999.90;999.90;;;;;;;;;;6730275;88;20224;-79
2023/07/30 16:30:15;;;;;;;1999.90;999.90;;;;;;;;;;6733243;88;20777;-78
2023/07/30 16:40:24;;;;;;;1999.90;999.90;;;;;;;;;;6742448;88;20173;-79
2023/07/30 16:50:25;;;;;;;1999.90;999.90;;;;;;;;;;6741136;88;20200;-78
2023/07/30 17:00:26;;;;;;;1999.90;999.90;;;;;;;;;;6730417;88;20689;-80
2023/07/30 17:10:27;;;;;;;1999.90;999.90;;;;;;;;;;6735059;88;20209;-78
2023/07/30 17:20:28;;;;;;;1999.90;999.90;;;;;;;;;;6729153;88;20198;-78
2023/07/30 17:30:32;;;;;;;1999.90;999.90;;;;;;;;;;6747661;87;20214;-78
2023/07/30 17:40:33;;;;;;;1999.90;999.90;;;;;;;;;;6719510;88;20634;-78
2023/07/30 17:50:34;;;;;;;1999.90;999.90;;;;;;;;;;6721100;88;20265;-78
2023/07/30 18:00:35;;;;;;;1999.90;999.90;;;;;;;;;;6726270;88;20310;-78
2023/07/30 18:10:36;;;;;;;1999.90;999.90;;;;;;;;;;6724404;88;20684;-78
2023/07/30 18:20:37;;;;;;;1999.90;999.90;;;;;;;;;;6725361;88;20273;-78
2023/07/30 18:30:38;;;;;;;1999.90;999.90;;;;;;;;;;6727177;88;20712;-78
2023/07/30 18:40:39;;;;;;;1999.90;999.90;;;;;;;;;;6729867;88;20212;-78
2023/07/30 18:50:40;;;;;;;1999.90;999.90;;;;;;;;;;6730294;88;20224;-78
2023/07/30 19:00:41;;;;;;;1999.90;999.90;;;;;;;;;;6738643;88;20197;-78
2023/07/30 19:10:43;;;;;;;1999.90;999.90;;;;;;;;;;6729197;88;20329;-78
2023/07/30 19:20:44;;;;;;;1999.90;999.90;;;;;;;;;;6727802;88;20208;-77
2023/07/30 19:41:27;;;;;;;1999.90;999.90;;;;;;;;;;6762794;88;20794;-82
2023/07/30 19:51:28;;;;;;;1999.90;999.90;;;;;;;;;;6754314;88;20195;-82
2023/07/30 20:01:29;;;;;;;1999.90;999.90;;;;;;;;;;6754206;88;20520;-82
2023/07/30 20:11:30;;;;;;;1999.90;999.90;;;;;;;;;;6752038;88;20207;-80
2023/07/30 20:21:31;;;;;;;1999.90;999.90;;;;;;;;;;6747079;88;20312;-80
2023/07/30 20:31:36;;;;;;;1999.90;999.90;;;;;;;;;;6756887;88;20181;-80
2023/07/30 20:41:37;;;;;;;1999.90;999.90;;;;;;;;;;6761109;88;20190;-80
2023/07/30 20:51:38;;;;;;;1999.90;999.90;;;;;;;;;;6768897;88;20187;-80
2023/07/30 21:01:39;;;;;;;1999.90;999.90;;;;;;;;;;6769596;88;20666;-80
2023/07/30 21:11:40;;;;;;;1999.90;999.90;;;;;;;;;;6766364;88;20699;-80
2023/07/30 21:21:41;;;;;;;1999.90;999.90;;;;;;;;;;6770949;88;20196;-81
2023/07/30 21:31:42;;;;;;;1999.90;999.90;;;;;;;;;;6772769;87;20771;-79
2023/07/30 21:41:43;;;;;;;1999.90;999.90;;;;;;;;;;6769583;88;20177;-81
2023/07/30 21:51:44;;;;;;;1999.90;999.90;;;;;;;;;;6774352;88;20207;-81
2023/07/30 22:01:45;;;;;;;1999.90;999.90;;;;;;;;;;6776723;88;20698;-82
2023/07/30 22:11:46;;;;;;;1999.90;999.90;;;;;;;;;;6773627;88;20246;-81
2023/07/30 22:21:47;;;;;;;1999.90;999.90;;;;;;;;;;6773124;88;20196;-81
2023/07/30 22:31:48;;;;;;;1999.90;999.90;;;;;;;;;;6775533;88;20221;-81
2023/07/30 22:41:49;;;;;;;1999.90;999.90;;;;;;;;;;6771260;88;20281;-81
2023/07/30 22:51:50;;;;;;;1999.90;999.90;;;;;;;;;;6769658;88;20232;-80
2023/07/30 23:01:51;;;;;;;1999.90;999.90;;;;;;;;;;6772494;88;20199;-81
2023/07/30 23:11:52;;;;;;;1999.90;999.90;;;;;;;;;;6774769;88;20206;-81
2023/07/30 23:31:57;;;;;;;1999.90;999.90;;;;;;;;;;6753936;88;20177;-86
2023/07/30 23:41:58;;;;;;;1999.90;999.90;;;;;;;;;;6751769;88;21015;-82
2023/07/30 23:51:59;;;;;;;1999.90;999.90;;;;;;;;;;6750151;88;20181;-81
